createdAt,value
2023-05-05T00:02:22.263Z,18.77
2023-05-05T00:07:24.367Z,18.50
2023-05-05T00:17:28.153Z,21.40
2023-05-05T00:27:32.110Z,21.30
2023-05-05T00:37:36.284Z,16.85
2023-05-05T00:42:42.743Z,18.23
2023-05-05T00:48:05.953Z,17.33
2023-05-05T00:53:08.033Z,16.58
2023-05-05T01:03:15.673Z,20.08
2023-05-05T01:08:38.509Z,22.30
2023-05-05T01:14:17.506Z,17.58
2023-05-05T01:19:34.301Z,18.45
2023-05-05T01:25:01.682Z,16.80
2023-05-05T01:30:15.568Z,16.58
2023-05-05T01:35:27.638Z,19.95
2023-05-05T01:40:33.879Z,20.65
2023-05-05T01:45:39.184Z,16.58
2023-05-05T01:50:43.094Z,18.05
2023-05-05T01:55:47.132Z,19.27
2023-05-05T02:06:07.817Z,22.58
2023-05-05T02:11:11.468Z,14.93
2023-05-05T02:16:14.340Z,18.83
2023-05-05T02:21:18.363Z,17.50
2023-05-05T02:26:24.023Z,19.52
2023-05-05T02:31:27.583Z,16.67
2023-05-05T02:36:33.966Z,15.63
2023-05-05T02:41:39.757Z,15.57
2023-05-05T02:46:43.389Z,15.93
2023-05-05T02:51:45.444Z,16.92
2023-05-05T02:56:51.793Z,15.27
2023-05-05T03:02:32.951Z,15.98
2023-05-05T03:07:41.304Z,14.80
2023-05-05T03:12:57.062Z,16.48
2023-05-05T03:18:00.724Z,13.32
2023-05-05T03:23:03.293Z,14.57
2023-05-05T03:28:05.288Z,14.43
2023-05-05T03:33:08.620Z,13.80
2023-05-05T03:38:10.836Z,19.13
2023-05-05T03:48:14.776Z,12.90
2023-05-05T03:53:16.777Z,16.42
2023-05-05T03:58:19.173Z,17.17
2023-05-05T04:03:21.341Z,15.63
2023-05-05T04:08:23.550Z,13.70
2023-05-05T04:18:27.508Z,11.90
2023-05-05T04:23:29.562Z,20.65
2023-05-05T04:33:33.494Z,10.02
2023-05-05T04:43:37.543Z,12.35
2023-05-05T04:53:41.362Z,11.80
2023-05-05T04:58:43.447Z,13.05
2023-05-05T05:03:46.203Z,11.70
2023-05-05T05:08:48.306Z,9.07
2023-05-05T05:13:50.515Z,10.02
2023-05-05T05:18:52.642Z,11.15
2023-05-05T05:23:54.704Z,6.45
2023-05-05T05:28:56.686Z,7.93
2023-05-05T05:33:58.663Z,7.32
2023-05-05T05:39:00.652Z,8.35
2023-05-05T05:44:02.692Z,7.28
2023-05-05T05:49:04.711Z,7.28
2023-05-05T05:54:06.828Z,6.30
2023-05-05T05:59:10.436Z,6.40
2023-05-05T06:04:13.790Z,4.95
2023-05-05T06:09:16.027Z,5.90
2023-05-05T06:14:19.499Z,7.00
2023-05-05T06:19:22.110Z,6.50
2023-05-05T06:24:24.318Z,6.85
2023-05-05T06:29:28.928Z,6.95
2023-05-05T06:34:31.080Z,5.40
2023-05-05T06:39:33.091Z,5.72
2023-05-05T06:44:36.733Z,5.28
2023-05-05T06:49:38.754Z,7.05
2023-05-05T06:54:40.963Z,5.85
2023-05-05T06:59:43.030Z,8.88
2023-05-05T07:04:45.168Z,7.88
2023-05-05T07:09:47.357Z,5.18
2023-05-05T07:14:49.503Z,6.65
2023-05-05T07:19:52.020Z,5.18
2023-05-05T07:24:54.089Z,5.72
2023-05-05T07:29:56.141Z,5.18
2023-05-05T07:34:58.230Z,6.03
2023-05-05T07:40:00.189Z,6.50
2023-05-05T07:45:02.548Z,5.03
2023-05-05T07:50:05.121Z,6.57
2023-05-05T07:55:07.322Z,5.45
2023-05-05T08:00:10.635Z,9.40
2023-05-05T08:05:13.009Z,6.18
2023-05-05T08:10:15.132Z,5.68
2023-05-05T08:15:17.235Z,4.97
2023-05-05T08:20:21.115Z,6.50
2023-05-05T08:25:23.264Z,3.72
2023-05-05T08:30:25.419Z,6.35
2023-05-05T08:35:27.547Z,5.90
2023-05-05T08:40:34.553Z,6.10
2023-05-05T08:45:37.677Z,4.80
2023-05-05T08:50:40.669Z,5.72
2023-05-05T08:55:52.621Z,5.78
2023-05-05T09:00:56.064Z,7.20
2023-05-05T09:05:58.764Z,4.25
2023-05-05T09:11:02.210Z,9.10
2023-05-05T09:16:04.523Z,6.22
2023-05-05T09:21:27.013Z,4.55
2023-05-05T09:26:33.597Z,4.65
2023-05-05T09:31:38.114Z,4.55
2023-05-05T09:36:49.998Z,3.95
2023-05-05T09:41:53.154Z,3.08
2023-05-05T09:46:56.048Z,4.97
2023-05-05T09:51:58.268Z,6.07
2023-05-05T09:57:00.280Z,3.15
2023-05-05T10:02:15.989Z,3.85
2023-05-05T10:07:27.810Z,5.13
2023-05-05T10:12:31.646Z,5.95
2023-05-05T10:17:58.335Z,3.75
2023-05-05T10:23:08.555Z,7.50
2023-05-05T10:28:16.384Z,4.53
2023-05-05T10:33:34.479Z,3.08
2023-05-05T10:38:37.586Z,5.95
2023-05-05T10:43:40.669Z,3.70
2023-05-05T10:49:15.305Z,6.35
2023-05-05T10:54:37.152Z,4.75
2023-05-05T10:59:41.786Z,5.13
2023-05-05T11:04:44.095Z,5.28
2023-05-05T11:09:57.434Z,4.22
2023-05-05T11:15:21.362Z,5.25
2023-05-05T11:20:49.931Z,3.38
2023-05-05T11:25:53.202Z,4.38
2023-05-05T11:30:55.371Z,4.47
2023-05-05T11:35:59.021Z,3.30
2023-05-05T11:41:12.732Z,6.00
2023-05-05T11:46:17.367Z,5.90
2023-05-05T11:51:19.974Z,3.75
2023-05-05T11:56:24.750Z,5.72
2023-05-05T12:01:27.132Z,3.90
2023-05-05T12:06:33.347Z,5.72
2023-05-05T12:11:35.428Z,3.65
2023-05-05T12:16:38.790Z,5.88
2023-05-05T12:21:40.955Z,4.20
2023-05-05T12:26:43.397Z,5.30
2023-05-05T12:31:45.562Z,5.10
2023-05-05T12:36:47.974Z,6.55
2023-05-05T12:41:51.031Z,4.55
2023-05-05T12:46:59.487Z,4.40
2023-05-05T12:52:05.982Z,4.38
2023-05-05T12:57:12.254Z,4.63
2023-05-05T13:02:15.800Z,6.90
2023-05-05T13:07:20.036Z,5.10
2023-05-05T13:12:23.314Z,4.45
2023-05-05T13:17:27.341Z,3.05
2023-05-05T13:22:29.594Z,3.30
2023-05-05T13:27:31.949Z,4.75
2023-05-05T13:32:34.269Z,3.25
2023-05-05T13:37:36.461Z,3.65
2023-05-05T13:42:38.781Z,5.43
2023-05-05T13:47:42.276Z,3.28
2023-05-05T13:52:46.514Z,5.50
2023-05-05T13:57:49.233Z,4.65
2023-05-05T14:02:52.849Z,5.68
2023-05-05T14:07:56.542Z,4.45
2023-05-05T14:12:59.062Z,3.50
2023-05-05T14:18:02.182Z,4.28
2023-05-05T14:23:04.752Z,4.90
2023-05-05T14:28:07.695Z,4.35
2023-05-05T14:33:12.745Z,6.05
2023-05-05T14:38:14.974Z,4.28
2023-05-05T14:43:19.631Z,3.97
2023-05-05T14:48:23.244Z,5.00
2023-05-05T14:53:25.368Z,4.30
2023-05-05T14:58:27.697Z,4.57
2023-05-05T15:03:34.522Z,4.32
2023-05-05T15:08:39.446Z,3.88
2023-05-05T15:14:06.095Z,2.80
2023-05-05T15:19:10.412Z,3.72
2023-05-05T15:24:12.849Z,3.25
2023-05-05T15:29:15.101Z,2.78
2023-05-05T15:34:17.376Z,4.53
2023-05-05T15:39:19.986Z,4.35
2023-05-05T15:44:22.396Z,2.35
2023-05-05T15:49:24.739Z,4.57
2023-05-05T15:54:27.675Z,2.92
2023-05-05T15:59:30.246Z,3.45
2023-05-05T16:04:32.798Z,4.38
2023-05-05T16:09:38.834Z,2.63
2023-05-05T16:14:41.278Z,2.95
2023-05-05T16:19:43.907Z,2.88
2023-05-05T16:24:46.247Z,1.80
2023-05-05T16:29:48.522Z,1.67
2023-05-05T16:34:51.003Z,3.70
2023-05-05T16:39:53.781Z,3.88
2023-05-05T16:44:56.915Z,3.63
2023-05-05T16:49:59.202Z,4.13
2023-05-05T16:55:01.436Z,5.05
2023-05-05T17:00:05.289Z,4.57
2023-05-05T17:05:08.072Z,3.42
2023-05-05T17:10:11.496Z,4.43
2023-05-05T17:15:14.092Z,2.85
2023-05-05T17:20:16.784Z,4.28
2023-05-05T17:25:19.381Z,3.45
2023-05-05T17:30:21.802Z,3.05
2023-05-05T17:35:24.084Z,3.15
2023-05-05T17:45:44.308Z,4.95
2023-05-05T17:50:50.439Z,3.28
2023-05-05T17:55:52.857Z,5.13
2023-05-05T18:00:55.205Z,2.85
2023-05-05T18:05:57.934Z,3.35
2023-05-05T18:11:00.110Z,9.55
2023-05-05T18:16:02.306Z,4.47
2023-05-05T18:21:04.583Z,3.20
2023-05-05T18:26:07.624Z,3.58
2023-05-05T18:31:09.941Z,3.88
2023-05-05T18:36:12.412Z,3.83
2023-05-05T18:41:15.829Z,4.38
2023-05-05T18:46:19.807Z,4.47
2023-05-05T18:51:23.207Z,7.15
2023-05-05T18:56:28.969Z,4.97
2023-05-05T19:01:33.495Z,5.13
2023-05-05T19:06:39.842Z,6.22
2023-05-05T19:11:44.442Z,1.80
2023-05-05T19:27:58.235Z,3.40
2023-05-05T19:40:24.824Z,4.07
2023-05-05T19:57:15.879Z,6.65
2023-05-05T20:02:17.990Z,4.15
2023-05-05T20:07:20.469Z,9.45
2023-05-05T20:12:23.890Z,5.72
2023-05-05T20:17:26.683Z,6.00
2023-05-05T20:22:29.597Z,9.15
2023-05-05T20:27:34.093Z,6.07
2023-05-05T20:32:39.002Z,3.97
2023-05-05T20:37:42.366Z,3.42
2023-05-05T20:42:44.874Z,7.53
2023-05-05T20:47:47.474Z,2.35
2023-05-05T20:52:50.267Z,5.18
2023-05-05T20:57:52.369Z,7.32
2023-05-05T21:02:54.707Z,5.47
2023-05-05T21:07:58.539Z,5.53
2023-05-05T21:13:03.191Z,5.85
2023-05-05T21:18:05.985Z,6.45
2023-05-05T21:23:08.077Z,6.18
2023-05-05T21:28:10.319Z,5.63
2023-05-05T21:33:12.634Z,6.50
2023-05-05T21:38:15.124Z,6.68
2023-05-05T21:43:17.448Z,4.38
2023-05-05T21:48:20.602Z,7.30
2023-05-05T21:53:23.086Z,7.07
2023-05-05T21:58:25.518Z,4.65
2023-05-05T22:03:27.609Z,8.30
2023-05-05T22:08:29.807Z,5.72
2023-05-05T22:13:31.746Z,4.68
2023-05-05T22:18:34.674Z,6.05
2023-05-05T22:23:37.599Z,5.68
2023-05-05T22:28:39.642Z,5.68
2023-05-05T22:38:43.496Z,6.30
2023-05-05T22:43:45.629Z,4.88
2023-05-05T22:48:47.653Z,7.13
2023-05-05T22:58:51.580Z,7.03
2023-05-05T23:08:55.580Z,5.65
2023-05-05T23:18:59.395Z,4.82
2023-05-05T23:24:01.355Z,2.20
2023-05-05T23:29:03.275Z,5.43
2023-05-05T23:34:05.212Z,7.82
2023-05-05T23:39:07.765Z,8.90
2023-05-05T23:44:09.727Z,7.32
2023-05-05T23:49:11.698Z,5.50
2023-05-05T23:54:13.646Z,6.50
2023-05-05T23:59:15.669Z,9.55
